createdAt,value
2022-09-25T00:02:43.246Z,4.69
2022-09-25T00:05:49.596Z,4.13
2022-09-25T00:08:55.631Z,4.19
2022-09-25T00:12:03.428Z,3.97
2022-09-25T00:15:10.646Z,3.98
2022-09-25T00:18:17.063Z,3.97
2022-09-25T00:21:22.753Z,3.66
2022-09-25T00:24:28.747Z,3.87
2022-09-25T00:27:36.407Z,4.78
2022-09-25T00:30:42.712Z,4.79
2022-09-25T00:33:48.783Z,4.83
2022-09-25T00:36:55.299Z,4.84
2022-09-25T00:40:01.671Z,4.36
2022-09-25T00:43:15.432Z,4.65
2022-09-25T00:46:24.451Z,4.75
2022-09-25T00:49:30.759Z,4.78
2022-09-25T00:52:37.342Z,4.86
2022-09-25T00:55:45.579Z,4.57
2022-09-25T00:58:52.913Z,3.74
2022-09-25T01:01:59.653Z,4.19
2022-09-25T01:05:10.927Z,4.32
2022-09-25T01:08:21.150Z,4.43
2022-09-25T01:11:27.232Z,4.46
2022-09-25T01:14:34.901Z,3.86
2022-09-25T01:17:50.580Z,3.57
2022-09-25T01:21:17.427Z,3.75
2022-09-25T01:24:58.696Z,3.17
2022-09-25T01:28:20.304Z,3.04
2022-09-25T01:31:36.138Z,4.24
2022-09-25T01:34:47.011Z,3.36
2022-09-25T01:38:00.069Z,3.77
2022-09-25T01:41:12.040Z,4.07
2022-09-25T01:44:26.045Z,4.35
2022-09-25T01:47:38.685Z,4.47
2022-09-25T01:50:49.224Z,4.37
2022-09-25T01:54:01.939Z,3.80
2022-09-25T01:57:11.948Z,3.33
2022-09-25T02:00:23.083Z,3.79
2022-09-25T02:03:38.098Z,3.87
2022-09-25T02:06:49.162Z,3.06
2022-09-25T02:09:59.272Z,3.17
2022-09-25T02:13:13.336Z,2.89
2022-09-25T02:16:23.784Z,2.82
2022-09-25T02:19:49.295Z,2.54
2022-09-25T02:22:56.784Z,2.82
2022-09-25T02:26:07.825Z,3.39
2022-09-25T02:29:14.143Z,3.38
2022-09-25T02:32:24.081Z,3.77
2022-09-25T02:35:31.469Z,3.46
2022-09-25T02:38:37.393Z,2.68
2022-09-25T02:41:55.968Z,2.36
2022-09-25T02:45:11.732Z,2.87
2022-09-25T02:48:29.217Z,2.88
2022-09-25T02:51:45.569Z,3.19
2022-09-25T02:54:58.434Z,3.35
2022-09-25T02:58:11.839Z,3.36
2022-09-25T03:01:21.692Z,2.72
2022-09-25T03:04:29.684Z,2.94
2022-09-25T03:07:52.188Z,3.26
2022-09-25T03:10:58.610Z,2.86
2022-09-25T03:14:06.029Z,2.59
2022-09-25T03:17:15.264Z,2.17
2022-09-25T03:20:21.699Z,2.21
2022-09-25T03:23:29.353Z,2.58
2022-09-25T03:26:35.470Z,2.09
2022-09-25T03:29:41.871Z,2.84
2022-09-25T03:32:47.655Z,2.58
2022-09-25T03:36:02.321Z,2.39
2022-09-25T03:39:11.178Z,2.59
2022-09-25T03:42:18.305Z,2.85
2022-09-25T03:45:24.972Z,3.16
2022-09-25T03:48:31.747Z,2.65
2022-09-25T03:51:39.072Z,2.90
2022-09-25T03:54:47.082Z,2.51
2022-09-25T03:57:53.296Z,2.82
2022-09-25T04:00:59.665Z,2.44
2022-09-25T04:04:06.041Z,3.00
2022-09-25T04:07:12.368Z,2.52
2022-09-25T04:10:20.339Z,2.26
2022-09-25T04:13:26.896Z,2.51
2022-09-25T04:16:33.100Z,2.37
2022-09-25T04:19:39.252Z,2.05
2022-09-25T04:22:45.453Z,1.97
2022-09-25T04:25:53.306Z,3.10
2022-09-25T04:29:01.688Z,2.15
2022-09-25T04:32:25.460Z,1.97
2022-09-25T04:35:31.501Z,2.24
2022-09-25T04:38:38.482Z,1.83
2022-09-25T04:41:46.216Z,2.57
2022-09-25T04:44:54.035Z,2.73
2022-09-25T04:48:02.136Z,3.27
2022-09-25T04:51:08.489Z,2.83
2022-09-25T04:54:16.279Z,3.03
2022-09-25T04:57:53.426Z,3.36
2022-09-25T05:00:52.914Z,2.95
2022-09-25T05:03:59.264Z,3.59
2022-09-25T05:07:05.851Z,3.32
2022-09-25T05:10:12.372Z,4.13
2022-09-25T05:13:19.895Z,4.55
2022-09-25T05:16:28.196Z,4.67
2022-09-25T05:19:34.209Z,4.62
2022-09-25T05:22:40.247Z,4.97
2022-09-25T05:25:53.045Z,5.04
2022-09-25T05:29:00.432Z,4.68
2022-09-25T05:32:07.692Z,4.89
2022-09-25T05:35:13.787Z,4.80
2022-09-25T05:38:19.664Z,5.13
2022-09-25T05:41:26.620Z,5.11
2022-09-25T05:44:34.115Z,5.11
2022-09-25T05:47:40.136Z,5.15
2022-09-25T05:50:46.554Z,5.95
2022-09-25T05:53:54.515Z,6.42
2022-09-25T05:57:00.603Z,6.85
2022-09-25T06:00:11.548Z,6.35
2022-09-25T06:03:18.080Z,7.04
2022-09-25T06:06:27.468Z,7.28
2022-09-25T06:09:33.871Z,7.56
2022-09-25T06:12:40.381Z,7.97
2022-09-25T06:15:50.837Z,8.22
2022-09-25T06:18:56.867Z,8.14
2022-09-25T06:22:03.077Z,8.94
2022-09-25T06:25:10.970Z,8.71
2022-09-25T06:28:17.178Z,8.58
2022-09-25T06:31:24.520Z,8.85
2022-09-25T06:34:31.069Z,9.22
2022-09-25T06:37:37.362Z,9.01
2022-09-25T06:40:45.111Z,9.36
2022-09-25T06:43:51.736Z,9.54
2022-09-25T06:46:59.932Z,9.74
2022-09-25T06:50:06.855Z,9.91
2022-09-25T06:53:13.967Z,9.83
2022-09-25T06:56:20.325Z,10.28
2022-09-25T06:59:27.133Z,10.32
2022-09-25T07:02:52.279Z,10.48
2022-09-25T07:06:01.209Z,10.49
2022-09-25T07:09:07.314Z,10.78
2022-09-25T07:12:13.748Z,11.19
2022-09-25T07:15:20.384Z,10.70
2022-09-25T07:18:29.908Z,11.01
2022-09-25T07:21:36.265Z,10.91
2022-09-25T07:24:42.814Z,11.00
2022-09-25T07:27:49.223Z,11.57
2022-09-25T07:30:55.718Z,12.10
2022-09-25T07:34:09.316Z,11.70
2022-09-25T07:37:16.649Z,12.61
2022-09-25T07:40:22.706Z,12.69
2022-09-25T07:43:28.630Z,13.12
2022-09-25T07:46:35.063Z,12.65
2022-09-25T07:49:42.813Z,13.09
2022-09-25T07:52:49.133Z,13.29
2022-09-25T07:56:03.663Z,14.00
2022-09-25T07:59:12.003Z,13.07
2022-09-25T08:02:18.308Z,13.64
2022-09-25T08:05:25.939Z,13.63
2022-09-25T08:08:32.616Z,13.28
2022-09-25T08:11:38.487Z,14.41
2022-09-25T08:14:44.605Z,14.80
2022-09-25T08:17:51.016Z,14.39
2022-09-25T08:21:03.990Z,14.73
2022-09-25T08:24:11.056Z,14.29
2022-09-25T08:27:17.119Z,14.77
2022-09-25T08:30:23.309Z,15.03
2022-09-25T08:33:29.894Z,15.75
2022-09-25T08:36:37.764Z,15.75
2022-09-25T08:39:44.680Z,16.21
2022-09-25T08:42:54.291Z,15.66
2022-09-25T08:46:22.742Z,15.53
2022-09-25T08:49:35.012Z,15.37
2022-09-25T08:52:45.500Z,16.05
2022-09-25T08:56:09.876Z,16.92
2022-09-25T08:59:26.309Z,16.58
2022-09-25T09:02:40.797Z,15.88
2022-09-25T09:05:51.782Z,16.56
2022-09-25T09:09:05.043Z,16.57
2022-09-25T09:12:16.716Z,17.73
2022-09-25T09:15:31.622Z,17.54
2022-09-25T09:18:40.622Z,17.41
2022-09-25T09:21:53.292Z,17.42
2022-09-25T09:25:05.644Z,17.83
2022-09-25T09:28:46.031Z,18.08
2022-09-25T09:32:03.281Z,18.39
2022-09-25T09:35:23.209Z,18.63
2022-09-25T09:38:40.307Z,18.64
2022-09-25T09:42:01.790Z,19.04
2022-09-25T09:45:18.539Z,20.13
2022-09-25T09:48:32.585Z,18.57
2022-09-25T09:51:44.360Z,19.26
2022-09-25T09:54:55.397Z,19.96
2022-09-25T09:58:09.197Z,20.67
2022-09-25T10:01:39.765Z,19.79
2022-09-25T10:04:44.387Z,20.08
2022-09-25T10:07:52.705Z,20.04
2022-09-25T10:10:59.283Z,20.97
2022-09-25T10:14:07.092Z,19.59
2022-09-25T10:17:13.946Z,20.78
2022-09-25T10:20:23.462Z,20.89
2022-09-25T10:23:38.856Z,19.92
2022-09-25T10:26:45.235Z,20.16
2022-09-25T10:30:20.598Z,21.91
2022-09-25T10:33:28.880Z,22.44
2022-09-25T10:36:42.508Z,21.85
2022-09-25T10:40:03.180Z,22.31
2022-09-25T10:43:20.568Z,22.10
2022-09-25T10:46:48.708Z,22.50
2022-09-25T10:50:13.425Z,22.79
2022-09-25T10:53:30.690Z,22.60
2022-09-25T10:56:39.110Z,23.09
2022-09-25T10:59:50.296Z,22.85
2022-09-25T11:02:59.963Z,23.22
2022-09-25T11:06:09.344Z,23.29
2022-09-25T11:09:18.899Z,23.75
2022-09-25T11:12:28.700Z,23.33
2022-09-25T11:15:39.271Z,21.88
2022-09-25T11:18:48.152Z,21.95
2022-09-25T11:22:04.901Z,22.50
2022-09-25T11:25:17.613Z,22.47
2022-09-25T11:28:31.778Z,23.43
2022-09-25T11:31:43.787Z,23.05
2022-09-25T11:35:17.164Z,22.45
2022-09-25T11:38:52.967Z,23.31
2022-09-25T11:42:05.577Z,22.93
2022-09-25T11:45:20.597Z,22.47
2022-09-25T11:48:37.439Z,22.85
2022-09-25T11:52:32.662Z,24.19
2022-09-25T11:56:04.573Z,22.32
2022-09-25T11:59:27.171Z,23.08
2022-09-25T12:03:01.199Z,23.59
2022-09-25T12:06:24.122Z,23.46
2022-09-25T12:09:47.477Z,23.76
2022-09-25T12:13:03.419Z,23.73
2022-09-25T12:16:19.853Z,22.67
2022-09-25T12:19:40.005Z,22.77
2022-09-25T12:22:56.539Z,22.50
2022-09-25T12:26:23.105Z,22.81
2022-09-25T12:29:45.296Z,22.62
2022-09-25T12:33:19.162Z,23.42
2022-09-25T12:36:36.486Z,24.25
2022-09-25T12:39:46.242Z,24.83
2022-09-25T12:42:57.099Z,23.86
2022-09-25T12:46:13.520Z,24.69
2022-09-25T12:49:28.472Z,23.32
2022-09-25T12:52:42.805Z,23.30
2022-09-25T12:55:54.318Z,23.89
2022-09-25T12:59:12.236Z,24.47
2022-09-25T13:02:27.229Z,23.96
2022-09-25T13:05:38.254Z,23.66
2022-09-25T13:08:50.356Z,23.02
2022-09-25T13:12:02.668Z,23.32
2022-09-25T13:15:15.370Z,23.72
2022-09-25T13:18:24.751Z,24.34
2022-09-25T13:21:33.733Z,24.74
2022-09-25T13:24:45.117Z,24.61
2022-09-25T13:27:54.255Z,23.64
2022-09-25T13:31:09.434Z,23.71
2022-09-25T13:34:19.940Z,23.74
2022-09-25T13:37:31.726Z,24.27
2022-09-25T13:40:46.562Z,24.34
2022-09-25T13:44:42.122Z,24.07
2022-09-25T13:47:56.982Z,23.52
2022-09-25T13:51:32.844Z,24.52
2022-09-25T13:54:40.273Z,24.30
2022-09-25T13:58:04.083Z,23.33
2022-09-25T14:01:32.519Z,24.20
2022-09-25T14:04:40.580Z,24.28
2022-09-25T14:07:54.985Z,24.76
2022-09-25T14:11:05.958Z,24.01
2022-09-25T14:14:18.777Z,24.18
2022-09-25T14:17:29.901Z,22.21
2022-09-25T14:20:41.189Z,22.05
2022-09-25T14:23:50.559Z,22.66
2022-09-25T14:26:59.768Z,23.54
2022-09-25T14:30:11.432Z,22.10
2022-09-25T14:33:32.837Z,22.37
2022-09-25T14:36:50.447Z,22.53
2022-09-25T14:40:05.686Z,21.52
2022-09-25T14:43:40.579Z,21.01
2022-09-25T14:46:57.200Z,20.41
2022-09-25T14:50:04.477Z,21.02
2022-09-25T14:53:15.763Z,21.16
2022-09-25T14:56:22.956Z,20.61
2022-09-25T14:59:37.880Z,20.23
2022-09-25T15:02:47.283Z,20.32
2022-09-25T15:05:53.630Z,20.19
2022-09-25T15:09:02.936Z,20.29
2022-09-25T15:12:20.349Z,20.21
2022-09-25T15:15:28.121Z,20.16
2022-09-25T15:18:37.980Z,19.49
2022-09-25T15:21:45.265Z,19.50
2022-09-25T15:24:55.683Z,19.60
2022-09-25T15:28:02.450Z,19.37
2022-09-25T15:31:09.791Z,19.17
2022-09-25T15:34:15.997Z,18.79
2022-09-25T15:37:29.440Z,18.45
2022-09-25T15:40:35.501Z,18.68
2022-09-25T15:43:41.666Z,18.55
2022-09-25T15:46:52.076Z,18.20
2022-09-25T15:49:58.382Z,18.11
2022-09-25T15:53:05.180Z,17.98
2022-09-25T15:56:19.028Z,17.64
2022-09-25T15:59:29.467Z,17.98
2022-09-25T16:02:57.383Z,17.62
2022-09-25T16:06:04.535Z,16.92
2022-09-25T16:09:19.953Z,17.17
2022-09-25T16:12:35.096Z,16.90
2022-09-25T16:15:51.864Z,16.66
2022-09-25T16:19:01.391Z,16.72
2022-09-25T16:22:22.987Z,16.44
2022-09-25T16:25:33.139Z,16.56
2022-09-25T16:28:40.024Z,16.21
2022-09-25T16:31:47.040Z,16.26
2022-09-25T16:35:00.452Z,16.18
2022-09-25T16:38:07.624Z,16.07
2022-09-25T16:41:22.208Z,15.68
2022-09-25T16:44:47.217Z,15.85
2022-09-25T16:47:53.710Z,15.76
2022-09-25T16:51:02.342Z,15.71
2022-09-25T16:54:12.298Z,15.49
2022-09-25T16:57:18.761Z,15.80
2022-09-25T17:00:29.936Z,16.03
2022-09-25T17:03:49.975Z,15.64
2022-09-25T17:06:59.131Z,15.29
2022-09-25T17:10:05.367Z,15.52
2022-09-25T17:13:14.538Z,15.41
2022-09-25T17:16:20.958Z,15.20
2022-09-25T17:19:28.391Z,15.03
2022-09-25T17:22:36.168Z,14.65
2022-09-25T17:25:45.800Z,14.57
2022-09-25T17:28:52.342Z,14.58
2022-09-25T17:31:59.153Z,14.70
2022-09-25T17:35:23.455Z,14.18
2022-09-25T17:38:32.449Z,13.73
2022-09-25T17:41:39.172Z,14.12
2022-09-25T17:44:47.508Z,13.53
2022-09-25T17:47:55.840Z,13.50
2022-09-25T17:51:03.268Z,13.62
2022-09-25T17:54:12.804Z,13.59
2022-09-25T17:57:18.881Z,14.02
2022-09-25T18:00:25.490Z,14.31
2022-09-25T18:03:31.752Z,14.16
2022-09-25T18:06:38.381Z,14.28
2022-09-25T18:09:45.951Z,14.17
2022-09-25T18:12:51.900Z,13.02
2022-09-25T18:16:00.257Z,12.69
2022-09-25T18:19:23.769Z,12.43
2022-09-25T18:22:29.889Z,12.31
2022-09-25T18:25:40.825Z,12.34
2022-09-25T18:28:47.330Z,11.90
2022-09-25T18:31:54.021Z,12.34
2022-09-25T18:35:02.473Z,12.66
2022-09-25T18:38:08.859Z,13.43
2022-09-25T18:41:16.423Z,13.62
2022-09-25T18:44:23.601Z,13.41
2022-09-25T18:47:30.092Z,13.53
2022-09-25T18:50:36.365Z,13.10
2022-09-25T18:53:42.984Z,11.67
2022-09-25T18:56:50.652Z,11.47
2022-09-25T18:59:57.724Z,11.17
2022-09-25T19:03:04.456Z,11.09
2022-09-25T19:06:12.732Z,11.15
2022-09-25T19:09:24.308Z,10.96
2022-09-25T19:12:31.869Z,11.09
2022-09-25T19:15:38.178Z,11.19
2022-09-25T19:18:44.270Z,11.16
2022-09-25T19:21:50.780Z,10.72
2022-09-25T19:24:57.902Z,11.01
2022-09-25T19:28:05.738Z,10.51
2022-09-25T19:31:15.699Z,10.55
2022-09-25T19:34:22.233Z,10.83
2022-09-25T19:37:30.092Z,10.87
2022-09-25T19:40:39.953Z,9.62
2022-09-25T19:43:48.604Z,10.17
2022-09-25T19:46:54.917Z,10.56
2022-09-25T19:50:01.193Z,10.33
2022-09-25T19:53:07.434Z,10.12
2022-09-25T19:56:14.064Z,10.07
2022-09-25T19:59:22.040Z,10.35
2022-09-25T20:02:28.621Z,10.06
2022-09-25T20:05:39.331Z,9.77
2022-09-25T20:08:46.009Z,10.20
2022-09-25T20:11:52.191Z,10.12
2022-09-25T20:15:00.129Z,10.11
2022-09-25T20:18:06.957Z,9.33
2022-09-25T20:21:15.204Z,9.01
2022-09-25T20:24:22.961Z,9.13
2022-09-25T20:27:29.224Z,9.39
2022-09-25T20:30:36.735Z,9.19
2022-09-25T20:33:43.885Z,9.05
2022-09-25T20:36:50.900Z,8.95
2022-09-25T20:39:57.331Z,9.26
2022-09-25T20:43:03.735Z,9.26
2022-09-25T20:46:13.673Z,9.08
2022-09-25T20:49:20.475Z,9.10
2022-09-25T20:52:27.083Z,9.48
2022-09-25T20:55:38.775Z,9.29
2022-09-25T20:58:50.660Z,8.84
2022-09-25T21:02:02.379Z,9.14
2022-09-25T21:05:10.060Z,9.37
2022-09-25T21:08:16.167Z,9.49
2022-09-25T21:11:23.859Z,9.07
2022-09-25T21:14:30.201Z,9.11
2022-09-25T21:17:37.680Z,8.74
2022-09-25T21:20:43.670Z,8.59
2022-09-25T21:23:51.664Z,8.45
2022-09-25T21:26:58.095Z,8.48
2022-09-25T21:30:03.935Z,8.55
2022-09-25T21:33:11.562Z,8.97
2022-09-25T21:36:18.679Z,9.03
2022-09-25T21:39:24.891Z,9.03
2022-09-25T21:42:31.435Z,8.77
2022-09-25T21:45:37.333Z,8.44
2022-09-25T21:48:50.993Z,7.82
2022-09-25T21:51:57.147Z,7.53
2022-09-25T21:55:03.065Z,7.63
2022-09-25T21:58:09.206Z,8.45
2022-09-25T22:01:17.145Z,8.50
2022-09-25T22:04:25.080Z,8.32
2022-09-25T22:07:31.896Z,8.47
2022-09-25T22:10:37.975Z,8.46
2022-09-25T22:13:46.364Z,8.46
2022-09-25T22:16:53.702Z,7.86
2022-09-25T22:20:05.423Z,8.47
2022-09-25T22:23:11.527Z,8.68
2022-09-25T22:26:19.375Z,8.95
2022-09-25T22:29:26.191Z,8.70
2022-09-25T22:32:33.659Z,8.07
2022-09-25T22:35:41.046Z,8.27
2022-09-25T22:38:47.471Z,7.54
2022-09-25T22:41:55.316Z,7.60
2022-09-25T22:45:01.380Z,7.97
2022-09-25T22:48:07.465Z,7.77
2022-09-25T22:51:16.902Z,7.32
2022-09-25T22:54:23.316Z,7.05
2022-09-25T22:57:29.993Z,7.04
2022-09-25T23:00:35.962Z,7.80
2022-09-25T23:03:42.250Z,7.84
2022-09-25T23:06:50.552Z,7.39
2022-09-25T23:09:56.652Z,7.72
2022-09-25T23:13:03.283Z,7.07
2022-09-25T23:16:09.973Z,7.62
2022-09-25T23:19:16.855Z,7.59
2022-09-25T23:22:24.727Z,8.20
2022-09-25T23:25:31.141Z,7.92
2022-09-25T23:28:38.590Z,8.21
2022-09-25T23:31:45.568Z,8.13
2022-09-25T23:34:52.310Z,8.03
2022-09-25T23:38:00.037Z,7.32
2022-09-25T23:41:15.209Z,7.03
2022-09-25T23:44:21.474Z,6.96
2022-09-25T23:47:27.880Z,7.38
2022-09-25T23:50:34.094Z,7.57
2022-09-25T23:53:43.115Z,7.34
2022-09-25T23:56:49.186Z,7.24
2022-09-25T23:59:55.794Z,6.88
